Time;durP1;ratioP1;P1;durP2;ratioP2;P2;SDS_P1;SDS_P2;PMS_P1;PMS_P2;Temp;Humidity;BMP_temperature;BMP_pressure;BME280_temperature;BME280_humidity;BME280_pressure;Samples;Min_cycle;Max_cycle;Signal;HPM_P1;HPM_P2
2022/12/08 11:46:35;;;;;;;37.37;25.77;;;;;;;3.04;100.00;100682.31;5280494;27;20984;-72
2022/12/08 11:49:13;;;;;;;36.53;27.90;;;;;;;3.07;100.00;100689.16;5284126;28;20493;-70
2022/12/08 11:51:55;;;;;;;36.30;29.10;;;;;;;2.99;100.00;100674.69;5283409;28;20040;-71
2022/12/08 11:54:34;;;;;;;31.73;25.10;;;;;;;3.02;100.00;100678.91;5278853;28;20020;-70
2022/12/08 11:57:12;;;;;;;32.37;24.40;;;;;;;3.08;100.00;100680.47;5284519;28;20029;-70
2022/12/08 11:59:48;;;;;;;20.77;17.20;;;;;;;2.98;100.00;100672.16;5278285;28;20025;-71
2022/12/08 12:02:23;;;;;;;20.93;17.73;;;;;;;3.09;100.00;100680.44;5279557;28;20494;-71
2022/12/08 12:05:03;;;;;;;;;;;;;;;3.14;100.00;100673.38;5275225;28;20538;-71
2022/12/08 12:07:51;;;;;;;24.03;18.23;;;;;;;3.06;100.00;100677.09;5278388;28;19920;-71
2022/12/08 12:10:45;;;;;;;20.53;17.70;;;;;;;3.08;100.00;100673.56;5280259;28;20454;-71
2022/12/08 12:13:30;;;;;;;23.47;17.23;;;;;;;3.06;100.00;100670.19;5274733;28;20047;-71
2022/12/08 12:16:13;;;;;;;19.08;16.10;;;;;;;3.13;100.00;100676.00;5283524;28;20090;-70
2022/12/08 12:18:51;;;;;;;18.63;15.43;;;;;;;3.18;100.00;100668.13;5275986;28;20028;-71
2022/12/08 12:21:33;;;;;;;13.60;11.20;;;;;;;3.17;100.00;100666.41;5280835;28;20483;-71
2022/12/08 12:24:09;;;;;;;13.00;11.07;;;;;;;3.10;100.00;100664.03;5272451;28;20048;-71
2022/12/08 12:27:14;;;;;;;13.33;11.13;;;;;;;3.18;100.00;100662.94;5272817;28;20056;-72
2022/12/08 12:29:49;;;;;;;12.02;10.82;;;;;;;3.18;100.00;100663.75;5275355;28;20032;-72
2022/12/08 12:32:22;;;;;;;14.20;11.53;;;;;;;3.25;100.00;100659.22;5272796;28;20040;-72
2022/12/08 12:34:59;;;;;;;13.03;11.53;;;;;;;3.21;100.00;100649.91;5273615;28;20013;-72
2022/12/08 12:37:41;;;;;;;13.47;11.20;;;;;;;3.26;100.00;100653.19;5272046;28;20544;-72
2022/12/08 12:40:22;;;;;;;11.57;10.23;;;;;;;3.35;100.00;100665.81;5271556;28;20387;-72
2022/12/08 12:42:53;;;;;;;11.90;10.60;;;;;;;3.37;100.00;100653.66;5271845;28;20502;-72
2022/12/08 12:45:32;;;;;;;13.07;10.57;;;;;;;3.42;100.00;100650.91;5273206;28;20044;-72
2022/12/08 12:48:03;;;;;;;11.00;9.90;;;;;;;3.43;100.00;100649.19;5272452;28;20056;-72
2022/12/08 12:50:45;;;;;;;13.23;9.70;;;;;;;3.46;100.00;100652.53;5273027;28;20055;-75
2022/12/08 12:53:19;;;;;;;11.77;9.47;;;;;;;3.50;100.00;100641.19;5271524;28;20025;-72
2022/12/08 12:55:58;;;;;;;11.63;9.55;;;;;;;3.55;100.00;100634.97;5268719;28;20033;-73
2022/12/08 12:58:29;;;;;;;10.43;9.07;;;;;;;3.55;100.00;100635.84;5258952;28;20114;-72
2022/12/08 13:01:12;;;;;;;14.73;9.70;;;;;;;3.62;100.00;100642.50;5258806;28;20464;-73
2022/12/08 13:03:48;;;;;;;9.90;8.50;;;;;;;3.63;100.00;100639.00;5245918;28;20045;-73
2022/12/08 13:06:34;;;;;;;13.17;7.90;;;;;;;3.68;100.00;100631.09;5244597;28;20498;-73
2022/12/08 13:09:20;;;;;;;8.87;6.50;;;;;;;3.65;100.00;100631.19;5258490;28;20429;-72
2022/12/08 13:11:56;;;;;;;9.13;7.37;;;;;;;3.68;100.00;100630.25;5255284;28;20487;-72
2022/12/08 13:14:49;;;;;;;9.47;6.50;;;;;;;3.73;100.00;100629.19;5258428;28;20033;-72
2022/12/08 13:17:34;;;;;;;8.67;6.37;;;;;;;3.63;100.00;100618.28;5271274;28;20487;-71
2022/12/08 13:20:16;;;;;;;8.23;5.43;;;;;;;3.65;100.00;100623.41;5262042;28;20479;-71
2022/12/08 13:22:52;;;;;;;7.53;5.07;;;;;;;3.63;100.00;100627.81;5278141;28;20021;-69
2022/12/08 13:25:38;;;;;;;7.53;5.20;;;;;;;3.79;100.00;100641.06;5264260;28;20024;-71
2022/12/08 13:28:29;;;;;;;6.37;4.97;;;;;;;3.78;100.00;100635.94;5258146;28;20036;-70
2022/12/08 13:31:01;;;;;;;6.53;4.63;;;;;;;3.71;100.00;100630.13;5268033;28;20029;-70
2022/12/08 13:33:39;;;;;;;6.83;4.40;;;;;;;3.73;100.00;100623.16;5264930;28;20009;-70
2022/12/08 13:36:20;;;;;;;5.33;4.30;;;;;;;3.64;100.00;100621.72;5255308;28;20036;-72
2022/12/08 13:38:55;;;;;;;5.43;3.63;;;;;;;3.74;100.00;100617.06;5258889;28;20017;-71
2022/12/08 13:41:37;;;;;;;;;;;;;;;3.87;100.00;100620.91;5257463;28;20174;-72
2022/12/08 13:44:20;;;;;;;4.60;4.17;;;;;;;3.74;100.00;100601.53;5263506;28;19999;-71
2022/12/08 13:46:55;;;;;;;5.03;3.10;;;;;;;3.69;100.00;100600.84;5254129;28;20037;-71
2022/12/08 13:49:29;;;;;;;;;;;;;;;3.85;100.00;100601.16;5259640;28;20083;-70
2022/12/08 13:52:01;;;;;;;5.33;3.57;;;;;;;3.75;100.00;100595.47;5259281;28;19974;-70
2022/12/08 13:54:39;;;;;;;5.83;4.30;;;;;;;3.73;100.00;100592.06;5257380;28;20483;-70
2022/12/08 13:57:27;;;;;;;5.70;4.03;;;;;;;3.74;100.00;100588.56;5258058;28;20360;-70
2022/12/08 14:00:13;;;;;;;5.10;3.93;;;;;;;3.78;100.00;100589.31;5261430;28;20434;-70
2022/12/08 14:02:47;;;;;;;6.50;4.33;;;;;;;3.68;100.00;100593.97;5259240;28;20041;-70
2022/12/08 14:05:21;;;;;;;11.98;3.67;;;;;;;3.73;100.00;100597.25;5261063;28;20126;-71
2022/12/08 14:07:54;;;;;;;5.25;4.60;;;;;;;3.54;100.00;100561.66;5254459;28;20051;-71
2022/12/08 14:10:30;;;;;;;6.77;4.80;;;;;;;3.74;100.00;100593.75;5259096;28;20029;-70
2022/12/08 14:13:09;;;;;;;9.40;4.80;;;;;;;3.70;100.00;100594.78;5261992;28;20191;-69
2022/12/08 14:15:41;;;;;;;5.87;4.10;;;;;;;3.69;100.00;100606.00;5263838;28;20479;-69
2022/12/08 14:18:29;;;;;;;7.00;3.63;;;;;;;3.70;100.00;100611.13;5277513;28;20032;-69
2022/12/08 14:21:04;;;;;;;6.10;3.70;;;;;;;3.61;100.00;100604.53;5256278;28;20118;-68
2022/12/08 14:23:35;;;;;;;5.93;3.85;;;;;;;3.68;100.00;100609.50;5257369;28;20037;-68
2022/12/08 14:26:11;;;;;;;4.20;3.10;;;;;;;3.71;100.00;100609.41;5263025;28;20492;-70
2022/12/08 14:28:42;;;;;;;6.17;3.03;;;;;;;3.63;100.00;100607.09;5257332;28;20369;-69
2022/12/08 14:31:15;;;;;;;4.37;2.30;;;;;;;3.65;100.00;100612.22;5257178;28;20036;-71
2022/12/08 14:33:47;;;;;;;4.77;2.97;;;;;;;3.52;100.00;100589.34;5251597;28;20032;-71
2022/12/08 14:36:19;;;;;;;3.67;2.20;;;;;;;3.49;100.00;100605.81;5262837;28;20442;-71
2022/12/08 14:38:54;;;;;;;2.80;2.20;;;;;;;3.43;100.00;100593.06;5259206;28;20021;-71
2022/12/08 14:41:32;;;;;;;4.20;2.00;;;;;;;3.50;100.00;100601.47;5255908;28;20067;-71
2022/12/08 14:44:16;;;;;;;4.23;2.10;;;;;;;3.53;100.00;100592.75;5256328;28;20099;-71
2022/12/08 14:47:09;;;;;;;3.95;2.38;;;;;;;3.54;100.00;100586.69;5256873;28;20028;-71
2022/12/08 14:49:40;;;;;;;2.17;1.70;;;;;;;3.36;100.00;100579.50;5255699;28;20033;-71
2022/12/08 14:52:13;;;;;;;4.47;2.00;;;;;;;3.54;100.00;100602.22;5255794;28;20054;-73
2022/12/08 14:54:44;;;;;;;3.77;2.53;;;;;;;3.32;100.00;100566.69;5261175;28;20036;-72
2022/12/08 14:57:16;;;;;;;2.43;1.70;;;;;;;3.46;100.00;100600.72;5252173;28;20029;-71
2022/12/08 14:59:48;;;;;;;3.17;2.07;;;;;;;3.35;100.00;100585.56;5256933;28;20032;-71
2022/12/08 15:02:29;;;;;;;5.53;2.00;;;;;;;3.43;100.00;100606.03;5250612;28;20448;-72
2022/12/08 15:05:09;;;;;;;3.70;2.10;;;;;;;3.41;100.00;100607.81;5253042;28;20033;-72
2022/12/08 15:07:49;;;;;;;4.33;2.37;;;;;;;3.43;100.00;100610.34;5240609;28;20060;-71
2022/12/08 15:10:26;;;;;;;2.33;1.90;;;;;;;3.46;100.00;100612.81;5256081;28;20764;-72
2022/12/08 15:13:10;;;;;;;2.60;2.20;;;;;;;3.44;100.00;100612.06;5256316;28;20055;-75
2022/12/08 15:16:01;;;;;;;2.67;2.10;;;;;;;3.39;100.00;100601.84;5251297;28;20025;-72
2022/12/08 15:18:39;;;;;;;3.20;2.27;;;;;;;3.33;100.00;100610.66;5255587;28;20029;-74
2022/12/08 15:21:11;;;;;;;3.53;2.13;;;;;;;3.27;100.00;100610.84;5242574;28;20032;-74
2022/12/08 15:23:47;;;;;;;4.37;2.57;;;;;;;3.25;100.00;100617.81;5251386;28;20070;-76
2022/12/08 15:26:25;;;;;;;2.93;2.40;;;;;;;3.28;100.00;100622.06;5245207;28;20114;-76
2022/12/08 15:28:56;;;;;;;8.03;2.20;;;;;;;3.08;100.00;100610.59;5254275;28;20061;-74
2022/12/08 15:31:27;;;;;;;3.40;2.20;;;;;;;3.09;100.00;100639.03;5254407;28;20107;-71
2022/12/08 15:33:58;;;;;;;3.03;2.50;;;;;;;3.01;100.00;100612.56;5252999;28;20194;-73
2022/12/08 15:36:30;;;;;;;2.73;2.10;;;;;;;3.02;100.00;100625.44;5253361;28;20029;-75
2022/12/08 15:39:01;;;;;;;4.37;2.40;;;;;;;2.97;100.00;100613.53;5254427;28;21233;-74
2022/12/08 15:41:32;;;;;;;3.47;2.37;;;;;;;2.96;100.00;100617.03;5263598;28;20125;-75
2022/12/08 15:44:04;;;;;;;3.10;2.10;;;;;;;2.82;100.00;100623.47;5254515;28;20343;-74
2022/12/08 15:46:35;;;;;;;2.70;2.00;;;;;;;2.95;100.00;100636.03;5252982;28;20032;-74
2022/12/08 15:49:15;;;;;;;2.63;2.33;;;;;;;2.87;100.00;100621.59;5255377;28;20087;-75
2022/12/08 15:51:47;;;;;;;2.30;2.03;;;;;;;2.83;100.00;100622.56;5241591;28;20029;-74
2022/12/08 15:54:18;;;;;;;3.97;2.40;;;;;;;2.90;100.00;100633.56;5253811;28;20044;-71
2022/12/08 15:56:52;;;;;;;3.77;2.57;;;;;;;2.93;100.00;100628.34;5254348;28;20112;-71
2022/12/08 15:59:24;;;;;;;2.70;2.20;;;;;;;2.87;100.00;100631.94;5255134;28;20056;-71
2022/12/08 16:01:55;;;;;;;2.40;2.00;;;;;;;2.74;100.00;100613.34;5255299;28;20459;-69
2022/12/08 16:04:27;;;;;;;2.33;1.93;;;;;;;2.78;100.00;100629.63;5245177;28;20045;-72
2022/12/08 16:06:58;;;;;;;4.70;2.40;;;;;;;2.76;100.00;100626.25;5244644;28;20029;-74
2022/12/08 16:09:40;;;;;;;3.43;2.30;;;;;;;2.78;100.00;100634.81;5245544;28;20067;-79
2022/12/08 16:15:11;;;;;;;3.60;2.83;;;;;;;2.76;100.00;100631.41;5245021;28;20045;-76
2022/12/08 16:17:42;;;;;;;7.10;3.57;;;;;;;2.75;100.00;100634.91;5245017;28;20024;-74
2022/12/08 16:20:16;;;;;;;3.80;3.40;;;;;;;2.72;100.00;100624.66;5245161;28;20059;-74
2022/12/08 16:22:48;;;;;;;5.70;4.03;;;;;;;2.61;100.00;100623.25;5245676;28;20021;-71
2022/12/08 16:25:20;;;;;;;4.47;3.80;;;;;;;2.65;100.00;100624.00;5245009;28;20032;-72
2022/12/08 16:27:54;;;;;;;6.63;3.53;;;;;;;2.69;100.00;100612.66;5245909;28;20029;-72
2022/12/08 16:30:25;;;;;;;4.93;4.32;;;;;;;2.70;100.00;100621.28;5246373;28;20436;-71
2022/12/08 16:32:57;;;;;;;5.40;3.83;;;;;;;2.62;100.00;100600.78;5247097;28;20139;-70
2022/12/08 16:35:29;;;;;;;5.27;3.97;;;;;;;2.66;100.00;100603.25;5246637;28;20032;-72
2022/12/08 16:38:00;;;;;;;5.50;4.50;;;;;;;2.64;100.00;100602.47;5247793;28;20071;-72
2022/12/08 16:40:32;;;;;;;6.13;4.57;;;;;;;2.70;100.00;100600.56;5248719;28;20837;-69
2022/12/08 16:43:03;;;;;;;7.67;4.63;;;;;;;2.69;100.00;100604.91;5250529;28;20055;-70
2022/12/08 16:45:36;;;;;;;4.83;4.33;;;;;;;2.59;100.00;100596.59;5249791;28;20087;-75
2022/12/08 16:48:13;;;;;;;7.77;4.30;;;;;;;2.62;100.00;100604.25;5249536;28;20778;-81
2022/12/08 16:50:44;;;;;;;5.83;4.67;;;;;;;2.57;100.00;100600.94;5246508;28;20029;-77
2022/12/08 16:53:15;;;;;;;8.43;5.40;;;;;;;2.45;100.00;100602.16;5248399;28;21323;-80
2022/12/08 16:55:48;;;;;;;9.87;5.67;;;;;;;2.49;100.00;100600.34;5248028;28;20029;-82
2022/12/08 16:58:19;;;;;;;8.63;6.07;;;;;;;2.51;100.00;100595.97;5246820;28;20526;-77
2022/12/08 17:00:51;;;;;;;8.07;5.90;;;;;;;2.46;100.00;100603.03;5247917;28;20037;-81
2022/12/08 17:03:22;;;;;;;8.37;5.97;;;;;;;2.44;100.00;100599.63;5249116;28;20033;-77
2022/12/08 17:05:54;;;;;;;7.47;5.67;;;;;;;2.42;100.00;100597.09;5246961;28;20032;-81
2022/12/08 17:08:25;;;;;;;6.50;5.80;;;;;;;2.48;100.00;100596.06;5248257;28;20229;-78
2022/12/08 17:11:06;;;;;;;6.20;5.50;;;;;;;2.41;100.00;100593.66;5248245;28;20021;-77
2022/12/08 17:13:40;;;;;;;6.60;5.90;;;;;;;2.46;100.00;100585.75;5250888;28;20037;-78
2022/12/08 17:16:15;;;;;;;7.18;6.38;;;;;;;2.52;100.00;100605.41;5249382;28;20029;-80
2022/12/08 17:18:47;;;;;;;7.53;5.77;;;;;;;2.54;100.00;100608.81;5249494;28;20060;-75
2022/12/08 17:21:19;;;;;;;6.93;6.23;;;;;;;2.50;100.00;100599.44;5248641;28;20115;-74
2022/12/08 17:23:50;;;;;;;7.50;6.37;;;;;;;2.37;100.00;100599.81;5249439;28;20020;-78
2022/12/08 17:26:22;;;;;;;7.63;6.83;;;;;;;2.37;100.00;100583.47;5249141;28;20024;-77
2022/12/08 17:28:53;;;;;;;9.50;6.10;;;;;;;2.54;100.00;100611.38;5249701;28;20029;-81
2022/12/08 17:31:24;;;;;;;8.53;6.30;;;;;;;2.50;100.00;100599.44;5250364;28;20079;-76
2022/12/08 17:34:00;;;;;;;8.63;6.40;;;;;;;2.38;100.00;100605.81;5251404;28;20550;-74
2022/12/08 17:36:32;;;;;;;8.90;7.27;;;;;;;2.45;100.00;100606.47;5250445;28;20596;-78
2022/12/08 17:39:04;;;;;;;8.10;7.23;;;;;;;2.41;100.00;100597.97;5247039;28;20903;-78
2022/12/08 17:41:35;;;;;;;8.63;7.37;;;;;;;2.49;100.00;100602.94;5249372;28;20483;-74
2022/12/08 17:44:11;;;;;;;9.23;6.73;;;;;;;2.51;100.00;100603.72;5249934;28;20507;-76
2022/12/08 17:46:44;;;;;;;9.20;7.57;;;;;;;2.42;100.00;100603.13;5250869;28;20024;-81
2022/12/08 17:49:18;;;;;;;11.67;8.67;;;;;;;2.36;100.00;100590.34;5254882;28;20537;-74
2022/12/08 17:51:53;;;;;;;10.30;8.02;;;;;;;2.50;100.00;100607.19;5250508;28;20025;-71
2022/12/08 17:54:24;;;;;;;;;;;;;;;2.61;100.00;100605.16;5255934;28;20045;-78
2022/12/08 17:56:57;;;;;;;11.13;8.03;;;;;;;2.51;100.00;100606.31;5255509;28;20593;-77
2022/12/08 17:59:29;;;;;;;10.27;8.70;;;;;;;2.49;100.00;100606.38;5257885;28;20143;-79
2022/12/08 18:02:00;;;;;;;10.97;9.23;;;;;;;2.53;100.00;100601.94;5256609;28;20108;-78
2022/12/08 18:04:31;;;;;;;10.50;9.40;;;;;;;2.49;100.00;100608.09;5242238;28;20415;-77
2022/12/08 18:07:03;;;;;;;14.50;9.90;;;;;;;2.53;100.00;100604.53;5255236;28;20032;-77
2022/12/08 18:09:34;;;;;;;11.70;10.03;;;;;;;2.41;100.00;100585.91;5257122;28;20379;-76
2022/12/08 18:12:05;;;;;;;12.00;10.80;;;;;;;2.29;100.00;100581.94;5255754;28;20557;-77
2022/12/08 18:14:37;;;;;;;12.03;10.83;;;;;;;2.09;100.00;100546.34;5264691;28;20078;-77
2022/12/08 18:17:08;;;;;;;12.20;10.93;;;;;;;2.42;100.00;100597.94;5269600;28;20028;-78
2022/12/08 18:19:39;;;;;;;13.57;12.03;;;;;;;2.41;100.00;100595.38;5260394;28;20128;-77
2022/12/08 18:22:11;;;;;;;14.10;12.60;;;;;;;2.33;100.00;100585.28;5259224;28;20029;-74
2022/12/08 18:24:43;;;;;;;15.73;13.63;;;;;;;2.40;100.00;100591.13;5254431;28;20037;-73
2022/12/08 18:27:14;;;;;;;16.30;14.60;;;;;;;2.35;100.00;100588.69;5255908;28;20055;-77
2022/12/08 18:29:45;;;;;;;18.93;14.77;;;;;;;2.37;100.00;100588.63;5255711;28;20056;-78
2022/12/08 18:32:17;;;;;;;16.47;13.97;;;;;;;2.33;100.00;100581.84;5261350;28;20035;-77
2022/12/08 18:34:49;;;;;;;17.03;14.03;;;;;;;2.31;100.00;100579.31;5246701;28;20040;-76
2022/12/08 18:37:20;;;;;;;17.57;14.10;;;;;;;2.37;100.00;100594.66;5265321;28;20026;-74
2022/12/08 18:39:52;;;;;;;17.90;14.33;;;;;;;2.34;100.00;100588.72;5258214;28;20107;-73
2022/12/08 18:42:23;;;;;;;19.80;13.60;;;;;;;2.38;100.00;100588.59;5265861;28;20027;-77
2022/12/08 18:45:03;;;;;;;15.27;13.67;;;;;;;2.37;100.00;100589.47;5255892;28;20037;-78
2022/12/08 18:47:37;;;;;;;16.50;14.73;;;;;;;2.47;100.00;100584.03;5259609;28;21256;-79
2022/12/08 18:50:10;;;;;;;18.20;13.98;;;;;;;2.42;100.00;100579.84;5258789;28;20025;-78
2022/12/08 18:52:41;;;;;;;19.10;15.50;;;;;;;2.39;100.00;100584.25;5256129;28;20072;-79
2022/12/08 18:55:13;;;;;;;16.43;14.73;;;;;;;2.28;100.00;100553.56;5250410;28;20048;-78
2022/12/08 18:57:45;;;;;;;19.47;14.43;;;;;;;2.42;100.00;100566.06;5254115;28;20490;-76
2022/12/08 19:00:18;;;;;;;17.70;14.07;;;;;;;2.41;100.00;100569.53;5262763;28;20032;-74
2022/12/08 19:02:49;;;;;;;17.37;13.73;;;;;;;2.43;100.00;100572.91;5265810;28;20119;-74
2022/12/08 19:05:20;;;;;;;18.00;14.40;;;;;;;2.40;100.00;100579.03;5261583;28;20130;-73
2022/12/08 19:07:52;;;;;;;16.03;13.83;;;;;;;2.41;100.00;100575.56;5256828;28;20464;-74
2022/12/08 19:10:24;;;;;;;16.63;13.73;;;;;;;2.38;100.00;100567.03;5257421;28;20033;-74
2022/12/08 19:12:55;;;;;;;17.87;14.67;;;;;;;2.32;100.00;100560.34;5256181;28;20060;-72
2022/12/08 19:15:26;;;;;;;17.70;14.40;;;;;;;2.42;100.00;100577.28;5256110;28;20496;-73
2022/12/08 19:17:58;;;;;;;22.47;15.40;;;;;;;2.41;100.00;100578.16;5259120;28;20025;-71
2022/12/08 19:20:29;;;;;;;16.17;12.83;;;;;;;2.40;100.00;100579.03;5266616;28;20047;-73
2022/12/08 19:23:00;;;;;;;18.30;14.27;;;;;;;2.44;100.00;100581.53;5261647;28;20025;-76
2022/12/08 19:25:32;;;;;;;16.67;13.90;;;;;;;2.43;100.00;100583.25;5259532;28;20075;-75
2022/12/08 19:28:03;;;;;;;18.37;13.57;;;;;;;2.38;100.00;100570.50;5262029;28;20025;-73
2022/12/08 19:30:35;;;;;;;14.93;12.73;;;;;;;2.38;100.00;100574.81;5261477;28;20029;-77
2022/12/08 19:33:06;;;;;;;18.30;13.07;;;;;;;2.43;100.00;100583.25;5252604;28;20557;-78
2022/12/08 19:35:38;;;;;;;15.97;14.10;;;;;;;2.40;100.00;100588.53;5243424;28;20130;-76
2022/12/08 19:38:09;;;;;;;17.73;13.90;;;;;;;2.30;100.00;100568.13;5245638;28;20901;-75
2022/12/08 19:46:22;;;;;;;15.00;12.77;;;;;;;2.38;100.00;100586.00;5249030;28;20724;-80
2022/12/08 19:48:54;;;;;;;13.73;12.23;;;;;;;2.37;100.00;100584.31;5250552;28;20048;-77
2022/12/08 19:51:25;;;;;;;15.47;12.97;;;;;;;2.20;100.00;100558.13;5248879;28;20025;-82
2022/12/08 19:53:57;;;;;;;19.00;12.97;;;;;;;2.35;100.00;100569.72;5250346;28;20395;-79
2022/12/08 19:56:28;;;;;;;17.40;13.23;;;;;;;2.38;100.00;100573.06;5250399;28;20087;-79
2022/12/08 19:58:59;;;;;;;19.53;11.77;;;;;;;2.29;100.00;100573.34;5248905;28;20112;-78
2022/12/08 20:01:30;;;;;;;14.47;12.50;;;;;;;2.26;100.00;100573.44;5249463;28;20099;-76
2022/12/08 20:04:02;;;;;;;14.17;12.20;;;;;;;1.87;100.00;100518.56;5252455;28;20037;-78
2022/12/08 20:06:33;;;;;;;14.93;12.60;;;;;;;2.25;100.00;100576.91;5253276;28;20024;-75
2022/12/08 20:09:05;;;;;;;15.50;11.67;;;;;;;2.23;100.00;100576.09;5257387;28;20029;-77
2022/12/08 20:11:37;;;;;;;15.97;12.60;;;;;;;2.18;100.00;100571.09;5256749;28;20472;-76
2022/12/08 20:14:09;;;;;;;13.83;12.17;;;;;;;1.91;100.00;100522.75;5255660;28;20459;-77
2022/12/08 20:16:40;;;;;;;16.50;11.63;;;;;;;2.16;100.00;100568.53;5255953;28;20040;-76
2022/12/08 20:19:11;;;;;;;17.13;12.20;;;;;;;2.10;100.00;100563.53;5256248;28;20036;-81
2022/12/08 20:21:43;;;;;;;16.20;12.10;;;;;;;2.09;100.00;100569.63;5255684;28;20259;-76
2022/12/08 20:24:15;;;;;;;15.23;12.33;;;;;;;2.07;100.00;100565.38;5253880;28;20029;-84
2022/12/08 20:26:47;;;;;;;15.87;13.27;;;;;;;2.11;100.00;100575.56;5248216;28;20035;-78
2022/12/08 20:29:18;;;;;;;17.17;13.50;;;;;;;2.01;100.00;100564.66;5242823;28;20029;-80
2022/12/08 20:31:49;;;;;;;18.00;13.10;;;;;;;2.01;100.00;100566.38;5250594;28;20033;-76
2022/12/08 20:34:20;;;;;;;18.30;13.90;;;;;;;2.01;100.00;100574.97;5252114;28;20523;-77
2022/12/08 20:36:52;;;;;;;15.80;13.67;;;;;;;2.00;100.00;100569.88;5251749;28;20039;-74
2022/12/08 20:39:23;;;;;;;17.07;14.53;;;;;;;1.99;100.00;100579.34;5253525;28;20435;-75
2022/12/08 20:41:55;;;;;;;15.53;13.80;;;;;;;1.98;100.00;100582.81;5249383;28;20061;-85
2022/12/08 20:44:29;;;;;;;17.20;14.07;;;;;;;1.86;100.00;100572.81;5250073;28;20057;-76
2022/12/08 20:47:01;;;;;;;18.40;14.52;;;;;;;1.84;100.00;100564.28;5248894;28;20037;-76
2022/12/08 20:49:32;;;;;;;19.40;15.53;;;;;;;1.82;100.00;100564.31;5249534;28;20507;-75
2022/12/08 20:52:03;;;;;;;21.30;15.20;;;;;;;1.80;100.00;100574.69;5247217;28;20120;-80
2022/12/08 20:54:36;;;;;;;21.07;15.07;;;;;;;1.79;100.00;100562.69;5250310;28;20083;-77
2022/12/08 20:57:07;;;;;;;19.17;15.40;;;;;;;1.87;100.00;100569.38;5248562;28;20761;-76
2022/12/08 20:59:38;;;;;;;17.03;15.23;;;;;;;1.82;100.00;100566.91;5242021;28;20037;-81
2022/12/08 21:02:10;;;;;;;18.43;16.07;;;;;;;1.83;100.00;100568.63;5247445;28;20139;-75
2022/12/08 21:04:41;;;;;;;20.13;16.93;;;;;;;1.84;100.00;100577.19;5245292;28;20032;-75
2022/12/08 21:07:13;;;;;;;17.57;15.57;;;;;;;1.83;100.00;100573.78;5250010;28;20033;-73
2022/12/08 21:09:44;;;;;;;18.80;16.63;;;;;;;1.77;100.00;100579.09;5252923;28;20032;-85
2022/12/08 21:12:15;;;;;;;18.50;16.37;;;;;;;1.73;100.00;100572.34;5250855;28;20152;-75
2022/12/08 21:14:46;;;;;;;20.03;17.00;;;;;;;1.74;100.00;100576.59;5255015;28;20021;-77
2022/12/08 21:17:18;;;;;;;22.07;17.37;;;;;;;1.73;100.00;100577.50;5261004;28;20032;-78
2022/12/08 21:19:49;;;;;;;18.80;16.80;;;;;;;1.68;100.00;100573.28;5263104;28;20104;-77
2022/12/08 21:22:20;;;;;;;19.30;16.43;;;;;;;1.67;100.00;100571.63;5261878;28;20088;-83
2022/12/08 21:24:52;;;;;;;22.87;18.40;;;;;;;1.72;100.00;100581.81;5263950;28;20024;-82
2022/12/08 21:27:23;;;;;;;20.87;17.57;;;;;;;1.63;100.00;100572.56;5258402;28;20086;-77
2022/12/08 21:29:54;;;;;;;23.17;20.20;;;;;;;1.72;100.00;100581.81;5262099;28;20104;-76
2022/12/08 21:32:25;;;;;;;21.20;18.80;;;;;;;1.69;100.00;100585.31;5264579;28;20017;-77
2022/12/08 21:34:57;;;;;;;22.80;18.70;;;;;;;1.69;100.00;100572.41;5260125;28;20048;-76
2022/12/08 21:37:28;;;;;;;24.83;19.87;;;;;;;1.76;100.00;100587.75;5266134;28;20496;-77
2022/12/08 21:40:00;;;;;;;21.70;19.47;;;;;;;1.70;100.00;100583.56;5264110;28;20036;-76
2022/12/08 21:42:43;;;;;;;23.83;19.00;;;;;;;1.74;100.00;100585.19;5262378;28;20032;-77
2022/12/08 21:45:16;;;;;;;25.27;20.40;;;;;;;1.67;100.00;100578.50;5238780;28;20518;-75
2022/12/08 21:47:49;;;;;;;26.70;21.27;;;;;;;1.71;100.00;100587.84;5266565;28;20107;-76
